Latest Weather Observations for Salmon Gums RS

IDW60801

Issued at 5:35 pm WST Friday 22 August 2014 (issued every 30 minutes, with the page automatically refreshed every 10 minutes)

About weather observations | Map of weather stations | Latest weather observations for WA | Other Formats
Station Details ID: 012071 Name: SALMON GUMS RES.STN. Lat: -32.99 Lon: 121.62 Height: 249.0 m
Data from the previous 72 hours. | See also: Recent months at Salmon Gums RS
Date/Time
WST
Temp
°C
App
Temp
°C
Dew
Point
Rel
Hum
%
Delta-T
°C
Wind Press
QNH
hPa
Press
MSL
hPa
Rain
since 9 am
mm
Dir
 
Spd
km/h
Gust
km/h
Spd
kts
Gust
kts
22/05:30pm 12.2 9.1 5.6 64 3.1 S 11 17 6 9 - - 0.0
22/05:00pm 13.8 10.0 5.9 59 3.8 S 15 20 8 11 - - 0.0
22/04:30pm 14.9 10.1 4.6 50 4.9 S 19 24 10 13 - - 0.0
22/04:00pm 15.8 10.9 4.2 46 5.5 SSW 19 24 10 13 - - 0.0
22/03:30pm 16.8 11.9 2.0 37 6.7 SSW 17 24 9 13 - - 0.0
22/03:00pm 17.1 11.6 0.7 33 7.3 SSW 19 30 10 16 - - 0.0
22/02:30pm 17.3 11.5 0.0 31 7.6 SSW 20 33 11 18 - - 0.0
22/02:00pm 17.5 12.3 0.2 31 7.6 WSW 17 22 9 12 - - 0.0
22/01:30pm 17.6 11.7 -0.6 29 7.9 SW 20 32 11 17 - - 0.0
22/01:00pm 17.4 11.1 -0.8 29 7.8 SW 22 33 12 18 - - 0.0
22/12:30pm 17.1 11.0 0.3 32 7.4 SW 22 35 12 19 - - 0.0
22/12:00pm 17.0 11.4 1.0 34 7.1 SW 20 33 11 18 - - 0.0
22/11:30am 16.8 11.5 3.1 40 6.4 WSW 20 35 11 19 - - 0.0
22/11:00am 15.6 10.0 5.2 50 5.0 WSW 24 35 13 19 - - 0.0
22/10:30am 16.2 11.3 6.9 54 4.6 WSW 22 33 12 18 - - 0.0
22/10:00am 14.8 9.8 6.6 58 4.0 WSW 22 33 12 18 - - 0.0
22/09:30am 14.9 10.6 7.7 62 3.6 WSW 20 41 11 22 - - 0.0
22/09:00am 14.4 10.0 8.8 69 2.9 W 22 33 12 18 - - 0.2
22/08:30am 13.7 10.8 9.7 77 2.1 W 15 30 8 16 - - 0.2
22/08:00am 12.8 10.3 9.8 82 1.6 W 13 22 7 12 - - 0.2
22/07:30am 11.9 10.1 9.6 86 1.2 WNW 9 17 5 9 - - 0.2
22/07:00am 10.9 9.1 9.3 90 0.8 WNW 9 15 5 8 - - 0.2
22/06:30am 10.4 8.4 8.8 90 0.8 WNW 9 17 5 9 - - 0.2
22/06:00am 10.7 8.8 9.0 89 0.9 WNW 9 13 5 7 - - 0.2
22/05:30am 11.3 8.8 9.6 89 0.9 WNW 13 22 7 12 - - 0.2
22/05:00am 11.1 9.0 9.7 91 0.7 WNW 11 17 6 9 - - 0.2
22/04:30am 10.5 7.8 9.1 91 0.7 W 13 19 7 10 - - 0.2
22/04:00am 9.9 7.9 8.5 91 0.7 WNW 9 13 5 7 - - 0.2
22/03:30am 10.3 8.1 9.2 93 0.6 NW 11 15 6 8 - - 0.2
22/03:00am 9.7 8.1 8.6 93 0.5 WNW 7 11 4 6 - - 0.2
22/02:30am 9.9 8.3 8.8 93 0.5 NW 7 9 4 5 - - 0.2
22/02:00am 9.1 7.5 8.0 93 0.5 NW 6 9 3 5 - - 0.2
22/01:30am 9.5 8.4 8.3 92 0.6 W 4 6 2 3 - - 0.2
22/01:00am 8.7 8.0 7.0 89 0.8 CALM 0 0 0 0 - - 0.2
22/12:30am 11.9 11.2 10.1 89 0.9 W 4 4 2 2 - - 0.2
22/12:00am 12.7 11.7 11.1 90 0.9 W 7 13 4 7 - - 0.2
 
Date/Time
WST
Temp
°C
App
Temp
°C
Dew
Point
Rel
Hum
%
Delta-T
°C
Wind Press
QNH
hPa
Press
MSL
hPa
Rain
since 9 am
mm
Dir
 
Spd
km/h
Gust
km/h
Spd
kts
Gust
kts
21/11:30pm 13.1 11.9 11.7 91 0.8 NNW 9 11 5 6 - - 0.2
21/11:00pm 12.9 12.1 11.6 92 0.7 NW 7 9 4 5 - - 0.2
21/10:30pm 13.3 12.6 12.0 92 0.7 NW 7 9 4 5 - - 0.2
21/10:00pm 13.4 12.9 12.0 91 0.8 NW 6 7 3 4 - - 0.2
21/09:30pm 13.9 13.2 12.1 89 1.0 NNW 7 9 4 5 - - 0.2
21/09:00pm 14.4 13.8 12.4 88 1.1 NNW 7 11 4 6 - - 0.2
21/08:30pm 14.7 13.7 12.4 86 1.3 N 9 11 5 6 - - 0.2
21/08:00pm 16.0 15.0 12.4 79 2.0 NNW 9 15 5 8 - - 0.2
21/07:30pm 16.1 15.6 13.8 86 1.3 NW 9 11 5 6 - - 0.2
21/07:00pm 16.2 16.1 14.0 87 1.3 N 7 9 4 5 - - 0.2
21/06:30pm 16.0 16.3 13.3 84 1.5 WNW 4 6 2 3 - - 0.0
21/06:00pm 16.0 16.6 13.1 83 1.6 W 2 4 1 2 - - 0.0
21/05:30pm 16.6 16.4 13.5 82 1.8 NNW 7 11 4 6 - - 0.0
21/05:00pm 16.8 14.3 13.5 81 1.9 NNW 19 28 10 15 - - 0.0
21/04:30pm 20.5 17.8 11.7 57 4.9 WNW 17 30 9 16 - - 0.0
21/04:00pm 20.9 18.6 11.8 56 5.1 WNW 15 24 8 13 - - 0.0
21/03:30pm 20.9 17.7 11.3 54 5.4 WNW 19 28 10 15 - - 0.0
21/03:00pm 21.2 17.6 10.7 51 5.8 WNW 20 30 11 16 - - 0.0
21/02:30pm 21.9 17.5 8.8 43 7.0 NW 22 33 12 18 - - 0.0
21/02:00pm 22.2 18.4 9.0 43 7.1 WNW 19 28 10 15 - - 0.0
21/01:30pm 22.3 17.6 7.7 39 7.7 NW 22 43 12 23 - - 0.0
21/01:00pm 22.6 17.5 7.6 38 7.9 NNW 24 33 13 18 - - 0.0
21/12:30pm 23.0 17.7 6.7 35 8.5 NW 24 37 13 20 - - 0.0
21/12:00pm 23.0 17.9 7.5 37 8.2 NW 24 41 13 22 - - 0.0
21/11:30am 22.4 17.4 8.1 40 7.6 NNW 24 37 13 20 - - 0.0
21/11:00am 21.7 16.1 7.2 39 7.6 NNW 26 44 14 24 - - 0.0
21/10:30am 20.0 15.4 6.7 42 6.8 NNW 20 33 11 18 - - 0.0
21/10:00am 19.5 14.5 8.2 48 5.9 N 24 37 13 20 - - 0.0
21/09:30am 18.6 13.1 7.7 49 5.6 N 26 39 14 21 - - 0.0
21/09:00am 17.7 13.7 8.3 54 4.9 N 19 28 10 15 - - 0.0
21/08:30am 16.4 13.3 8.9 61 3.9 N 15 24 8 13 - - 0.0
21/08:00am 15.1 11.9 8.3 64 3.5 N 15 20 8 11 - - 0.0
21/07:30am 13.7 11.2 8.1 69 2.8 N 11 17 6 9 - - 0.0
21/07:00am 12.6 9.6 7.7 72 2.4 N 13 19 7 10 - - 0.0
21/06:30am 11.9 9.2 7.2 73 2.3 N 11 17 6 9 - - 0.0
21/06:00am 12.1 9.0 7.4 73 2.3 N 13 20 7 11 - - 0.0
21/05:30am 11.7 9.4 7.4 75 2.1 N 9 15 5 8 - - 0.0
21/05:00am 11.3 9.1 7.8 79 1.7 N 9 13 5 7 - - 0.0
21/04:30am 9.0 6.9 6.8 86 1.0 N 7 9 4 5 - - 0.0
21/04:00am 8.1 6.0 6.7 91 0.7 N 7 9 4 5 - - 0.0
21/03:30am 6.5 4.2 4.7 88 0.8 N 6 7 3 4 - - 0.0
21/03:00am 8.2 5.9 5.8 85 1.1 N 7 9 4 5 - - 0.0
21/02:30am 5.8 3.4 4.4 91 0.6 N 6 7 3 4 - - 0.0
21/02:00am 7.1 5.7 5.7 91 0.6 N 2 4 1 2 - - 0.0
21/01:30am 7.8 6.6 6.4 91 0.6 N 2 6 1 3 - - 0.0
21/01:00am 8.0 5.8 6.3 89 0.8 NNW 7 7 4 4 - - 0.0
21/12:30am 8.9 7.4 6.9 87 0.9 N 4 4 2 2 - - 0.0
21/12:00am 9.6 7.7 7.5 87 1.0 NNW 7 7 4 4 - - 0.0
 
Date/Time
WST
Temp
°C
App
Temp
°C
Dew
Point
Rel
Hum
%
Delta-T
°C
Wind Press
QNH
hPa
Press
MSL
hPa
Rain
since 9 am
mm
Dir
 
Spd
km/h
Gust
km/h
Spd
kts
Gust
kts
20/11:30pm 9.1 7.2 7.4 89 0.8 NW 7 9 4 5 - - 0.0
20/11:00pm 9.4 7.7 7.5 88 0.9 NNW 6 7 3 4 - - 0.0
20/10:30pm 10.7 9.2 8.5 86 1.1 NNW 6 7 3 4 - - 0.0
20/10:00pm 10.3 8.7 8.2 87 1.0 NW 6 7 3 4 - - 0.0
20/09:30pm 11.4 9.9 8.6 83 1.4 NW 6 7 3 4 - - 0.0
20/09:00pm 12.8 11.6 9.4 80 1.7 WNW 6 6 3 3 - - 0.0
20/08:30pm 13.4 12.6 9.5 77 2.0 WNW 4 6 2 3 - - 0.0
20/08:00pm 13.8 12.7 10.0 78 2.0 WNW 6 7 3 4 - - 0.0
20/07:30pm 14.2 14.0 9.2 72 2.6 CALM 0 0 0 0 - - 0.0
20/07:00pm 14.5 13.9 9.1 70 2.8 NNE 2 4 1 2 - - 0.0
20/06:30pm 15.1 14.0 8.3 64 3.5 NNE 4 7 2 4 - - 0.0
20/06:00pm 15.6 15.2 8.1 61 3.8 CALM 0 2 0 1 - - 0.0
20/05:30pm 16.9 15.8 7.0 52 5.0 NW 2 4 1 2 - - 0.0
20/05:00pm 17.9 16.4 6.7 48 5.6 NW 4 7 2 4 - - 0.0
20/04:30pm 18.5 16.3 6.0 44 6.2 NW 7 11 4 6 - - 0.0
20/04:00pm 19.1 16.5 5.9 42 6.6 N 9 15 5 8 - - 0.0
20/03:30pm 19.2 16.5 5.6 41 6.8 NNW 9 15 5 8 - - 0.0
20/03:00pm 18.9 15.3 5.0 40 6.8 NNW 13 20 7 11 - - 0.0
20/02:30pm 18.7 14.5 5.9 43 6.4 NW 17 22 9 12 - - 0.0
20/02:00pm 19.1 15.0 6.2 43 6.5 NW 17 26 9 14 - - 0.0
20/01:30pm 19.2 15.6 6.7 44 6.3 NW 15 22 8 12 - - 0.0
20/01:00pm 19.1 16.5 7.8 48 5.9 NNW 11 20 6 11 - - 0.0
20/12:30pm 18.0 15.3 8.8 55 4.8 WNW 13 19 7 10 - - 0.0
20/12:00pm 17.8 16.1 9.7 59 4.3 WNW 9 15 5 8 - - 0.0
20/11:30am 18.4 15.7 10.5 60 4.3 N 15 20 8 11 - - 0.0
20/11:00am 17.7 15.6 11.3 66 3.5 NNW 13 22 7 12 - - 0.0
20/10:30am 16.7 15.3 11.0 69 3.1 NW 9 17 5 9 - - 0.0
20/10:00am 15.6 13.8 11.0 74 2.5 NNW 11 19 6 10 - - 0.0
20/09:30am 14.8 13.5 11.2 79 1.9 NNW 9 15 5 8 - - 0.0
20/09:00am 13.7 12.4 11.4 86 1.2 NNW 9 15 5 8 - - 2.2
20/08:30am 12.4 11.5 11.3 93 0.6 NNW 7 11 4 6 - - 2.2
20/08:00am 11.0 9.0 10.2 95 0.4 NNW 11 17 6 9 - - 2.2
20/07:30am 9.1 7.6 8.5 96 0.3 N 6 9 3 5 - - 2.2
20/07:00am 5.7 3.8 5.0 95 0.3 NNE 4 6 2 3 - - 2.2
20/06:30am 5.4 4.2 4.5 94 0.4 CALM 0 0 0 0 - - 2.2
20/06:00am 6.0 4.5 5.1 94 0.4 NNE 2 4 1 2 - - 2.2
20/05:30am 7.0 5.7 6.1 94 0.4 E 2 6 1 3 - - 2.2
20/05:00am 8.4 6.5 7.6 95 0.4 NNW 7 11 4 6 - - 2.2
20/04:30am 8.7 6.5 7.9 95 0.4 NNW 9 13 5 7 - - 2.2
20/04:00am 8.4 6.1 7.6 95 0.4 NNW 9 11 5 6 - - 2.2
20/03:30am 8.6 6.4 7.8 95 0.4 NNW 9 13 5 7 - - 2.2
20/03:00am 8.5 6.6 7.7 95 0.4 NNW 7 9 4 5 - - 2.2
20/02:30am 8.7 6.5 7.9 95 0.4 NNW 9 11 5 6 - - 2.2
20/02:00am 8.6 6.8 8.0 96 0.3 N 7 11 4 6 - - 2.2
20/01:30am 4.9 2.3 4.0 94 0.4 NW 7 7 4 4 - - 2.2
20/01:00am 4.9 3.6 4.0 94 0.4 CALM 0 0 0 0 - - 2.2
20/12:30am 4.7 3.3 3.7 93 0.4 CALM 0 0 0 0 - - 2.2
20/12:00am 6.0 4.9 5.1 94 0.4 CALM 0 0 0 0 - - 2.2
 
Date/Time
WST
Temp
°C
App
Temp
°C
Dew
Point
Rel
Hum
%
Delta-T
°C
Wind Press
QNH
hPa
Press
MSL
hPa
Rain
since 9 am
mm
Dir
 
Spd
km/h
Gust
km/h
Spd
kts
Gust
kts
19/11:30pm 5.7 4.5 4.7 93 0.4 CALM 0 0 0 0 - - 2.2
19/11:00pm 6.7 5.7 5.7 93 0.5 CALM 0 0 0 0 - - 2.2
19/10:30pm 7.3 6.4 6.2 93 0.5 CALM 0 0 0 0 - - 2.2
19/10:00pm 8.3 7.3 7.2 93 0.5 NE 2 4 1 2 - - 2.2
19/09:30pm 9.3 7.7 8.2 93 0.5 NE 6 7 3 4 - - 2.2
19/09:00pm 9.6 8.1 8.4 92 0.6 NE 6 9 3 5 - - 2.2
19/08:30pm 10.1 8.7 8.9 92 0.6 NE 6 7 3 4 - - 2.2
19/08:00pm 10.2 8.6 8.8 91 0.7 NNE 7 9 4 5 - - 2.2
19/07:30pm 10.2 8.7 8.6 90 0.8 NE 6 7 3 4 - - 2.2
19/07:00pm 10.9 9.6 9.2 89 0.9 ENE 6 7 3 4 - - 2.2
19/06:30pm 10.8 9.2 8.6 86 1.1 E 7 9 4 5 - - 2.2
19/06:00pm 11.7 11.1 8.9 83 1.4 NNW 2 4 1 2 - - 2.2

Other Formats:

Comma delimited format used in spreadsheet applications
http://www.bom.gov.au/fwo/IDW60801/IDW60801.95639.axf

JavaScript Object Notation format (JSON) in row-major order
http://www.bom.gov.au/fwo/IDW60801/IDW60801.95639.json